sensor_id;sensor_type;location;lat;lon;timestamp;pressure;altitude;pressure_sealevel;temperature;humidity
59337;BME280;45115;52.002;4.686;2023-08-17T00:02:24;102077.72;;;17.60;90.48
59337;BME280;45115;52.002;4.686;2023-08-17T00:04:50;102080.50;;;17.60;90.53
59337;BME280;45115;52.002;4.686;2023-08-17T00:07:17;102076.53;;;17.63;90.15
59337;BME280;45115;52.002;4.686;2023-08-17T00:09:44;102072.03;;;17.62;90.47
59337;BME280;45115;52.002;4.686;2023-08-17T00:12:10;102079.69;;;17.68;90.23
59337;BME280;45115;52.002;4.686;2023-08-17T00:14:37;102077.47;;;17.71;90.02
59337;BME280;45115;52.002;4.686;2023-08-17T00:17:04;102080.25;;;17.71;89.79
59337;BME280;45115;52.002;4.686;2023-08-17T00:19:32;102080.97;;;17.73;89.30
59337;BME280;45115;52.002;4.686;2023-08-17T00:21:58;102084.91;;;17.71;89.75
59337;BME280;45115;52.002;4.686;2023-08-17T00:24:25;102075.88;;;17.69;89.62
59337;BME280;45115;52.002;4.686;2023-08-17T00:26:52;102084.38;;;17.67;89.70
59337;BME280;45115;52.002;4.686;2023-08-17T00:29:18;102080.03;;;17.65;90.17
59337;BME280;45115;52.002;4.686;2023-08-17T00:31:45;102079.63;;;17.60;91.02
59337;BME280;45115;52.002;4.686;2023-08-17T00:34:12;102080.34;;;17.62;90.53
59337;BME280;45115;52.002;4.686;2023-08-17T00:36:40;102077.56;;;17.62;90.67
59337;BME280;45115;52.002;4.686;2023-08-17T00:39:07;102087.47;;;17.64;90.92
59337;BME280;45115;52.002;4.686;2023-08-17T00:41:33;102088.34;;;17.65;90.95
59337;BME280;45115;52.002;4.686;2023-08-17T00:44:00;102086.66;;;17.72;90.35
59337;BME280;45115;52.002;4.686;2023-08-17T00:46:27;102089.19;;;17.65;90.66
59337;BME280;45115;52.002;4.686;2023-08-17T00:48:55;102070.84;;;17.64;90.73
59337;BME280;45115;52.002;4.686;2023-08-17T00:51:24;102079.38;;;17.71;90.73
59337;BME280;45115;52.002;4.686;2023-08-17T00:53:52;102072.56;;;17.65;90.94
59337;BME280;45115;52.002;4.686;2023-08-17T00:56:21;102076.84;;;17.60;91.39
59337;BME280;45115;52.002;4.686;2023-08-17T00:58:49;102057.41;;;17.52;92.23
59337;BME280;45115;52.002;4.686;2023-08-17T01:01:16;102063.66;;;17.54;91.81
59337;BME280;45115;52.002;4.686;2023-08-17T01:03:43;102066.41;;;17.54;92.00
59337;BME280;45115;52.002;4.686;2023-08-17T01:06:09;102068.22;;;17.45;92.20
59337;BME280;45115;52.002;4.686;2023-08-17T01:08:37;102078.53;;;17.35;93.37
59337;BME280;45115;52.002;4.686;2023-08-17T01:11:14;102078.09;;;17.30;93.07
59337;BME280;45115;52.002;4.686;2023-08-17T01:13:47;102072.16;;;17.25;92.71
59337;BME280;45115;52.002;4.686;2023-08-17T01:16:21;102074.09;;;17.25;93.49
59337;BME280;45115;52.002;4.686;2023-08-17T01:18:51;102078.75;;;17.24;93.20
59337;BME280;45115;52.002;4.686;2023-08-17T01:21:21;102079.22;;;17.20;93.69
59337;BME280;45115;52.002;4.686;2023-08-17T01:23:50;102079.75;;;17.23;93.13
59337;BME280;45115;52.002;4.686;2023-08-17T01:26:17;102076.75;;;17.17;93.91
59337;BME280;45115;52.002;4.686;2023-08-17T01:28:45;102068.78;;;17.14;94.13
59337;BME280;45115;52.002;4.686;2023-08-17T01:31:17;102072.09;;;17.17;93.79
59337;BME280;45115;52.002;4.686;2023-08-17T01:33:49;102073.75;;;17.10;94.16
59337;BME280;45115;52.002;4.686;2023-08-17T01:36:20;102074.47;;;17.12;94.24
59337;BME280;45115;52.002;4.686;2023-08-17T01:38:52;102073.75;;;17.10;93.92
59337;BME280;45115;52.002;4.686;2023-08-17T01:41:23;102079.91;;;17.04;93.99
59337;BME280;45115;52.002;4.686;2023-08-17T01:43:51;102074.38;;;17.04;94.02
59337;BME280;45115;52.002;4.686;2023-08-17T01:46:18;102072.81;;;17.02;94.42
59337;BME280;45115;52.002;4.686;2023-08-17T01:48:46;102075.47;;;16.94;94.72
59337;BME280;45115;52.002;4.686;2023-08-17T01:51:17;102068.97;;;16.85;95.73
59337;BME280;45115;52.002;4.686;2023-08-17T01:53:45;102062.84;;;16.91;95.13
59337;BME280;45115;52.002;4.686;2023-08-17T01:56:13;102063.19;;;16.79;95.86
59337;BME280;45115;52.002;4.686;2023-08-17T01:58:40;102067.41;;;16.83;96.00
59337;BME280;45115;52.002;4.686;2023-08-17T02:01:06;102060.63;;;16.67;96.62
59337;BME280;45115;52.002;4.686;2023-08-17T02:03:33;102060.47;;;16.69;97.09
59337;BME280;45115;52.002;4.686;2023-08-17T02:06:00;102056.31;;;16.65;97.14
59337;BME280;45115;52.002;4.686;2023-08-17T02:08:27;102065.63;;;16.64;97.76
59337;BME280;45115;52.002;4.686;2023-08-17T02:10:53;102064.22;;;16.60;98.25
59337;BME280;45115;52.002;4.686;2023-08-17T02:13:22;102064.50;;;16.57;98.92
59337;BME280;45115;52.002;4.686;2023-08-17T02:15:49;102067.81;;;16.60;98.86
59337;BME280;45115;52.002;4.686;2023-08-17T02:18:15;102061.72;;;16.57;98.64
59337;BME280;45115;52.002;4.686;2023-08-17T02:20:42;102056.81;;;16.51;99.22
59337;BME280;45115;52.002;4.686;2023-08-17T02:23:10;102062.03;;;16.54;99.54
59337;BME280;45115;52.002;4.686;2023-08-17T02:25:38;102054.63;;;16.54;100.00
59337;BME280;45115;52.002;4.686;2023-08-17T02:28:05;102054.63;;;16.54;99.20
59337;BME280;45115;52.002;4.686;2023-08-17T02:30:33;102057.38;;;16.54;99.94
59337;BME280;45115;52.002;4.686;2023-08-17T02:33:00;102051.13;;;16.52;99.66
59337;BME280;45115;52.002;4.686;2023-08-17T02:35:27;102050.97;;;16.54;99.78
59337;BME280;45115;52.002;4.686;2023-08-17T02:37:54;102056.59;;;16.62;99.25
59337;BME280;45115;52.002;4.686;2023-08-17T02:40:21;102047.88;;;16.57;99.25
59337;BME280;45115;52.002;4.686;2023-08-17T02:42:47;102042.50;;;16.55;99.30
59337;BME280;45115;52.002;4.686;2023-08-17T02:45:15;102046.31;;;16.54;99.33
59337;BME280;45115;52.002;4.686;2023-08-17T02:47:43;102051.69;;;16.56;98.88
59337;BME280;45115;52.002;4.686;2023-08-17T02:50:10;102047.28;;;16.63;98.43
59337;BME280;45115;52.002;4.686;2023-08-17T02:52:36;102045.84;;;16.59;98.29
59337;BME280;45115;52.002;4.686;2023-08-17T02:55:04;102051.38;;;16.59;98.45
59337;BME280;45115;52.002;4.686;2023-08-17T02:57:31;102041.03;;;16.61;97.69
59337;BME280;45115;52.002;4.686;2023-08-17T02:59:58;102051.06;;;16.62;97.84
59337;BME280;45115;52.002;4.686;2023-08-17T03:02:25;102046.56;;;16.61;97.28
59337;BME280;45115;52.002;4.686;2023-08-17T03:04:53;102046.25;;;16.64;96.99
59337;BME280;45115;52.002;4.686;2023-08-17T03:07:19;102057.63;;;16.61;97.62
59337;BME280;45115;52.002;4.686;2023-08-17T03:09:46;102052.97;;;16.61;97.53
59337;BME280;45115;52.002;4.686;2023-08-17T03:12:13;102059.78;;;16.67;97.76
59337;BME280;45115;52.002;4.686;2023-08-17T03:14:39;102051.84;;;16.54;98.54
59337;BME280;45115;52.002;4.686;2023-08-17T03:17:06;102050.38;;;16.60;98.38
59337;BME280;45115;52.002;4.686;2023-08-17T03:19:33;102051.06;;;16.62;98.48
59337;BME280;45115;52.002;4.686;2023-08-17T03:22:02;102039.50;;;16.49;99.21
59337;BME280;45115;52.002;4.686;2023-08-17T03:24:29;102039.78;;;16.46;99.31
59337;BME280;45115;52.002;4.686;2023-08-17T03:26:57;102032.66;;;16.43;99.75
59337;BME280;45115;52.002;4.686;2023-08-17T03:29:25;102048.84;;;16.38;100.00
59337;BME280;45115;52.002;4.686;2023-08-17T03:31:52;102038.66;;;16.39;100.00
59337;BME280;45115;52.002;4.686;2023-08-17T03:34:19;102050.47;;;16.31;100.00
59337;BME280;45115;52.002;4.686;2023-08-17T03:36:46;102040.13;;;16.33;100.00
59337;BME280;45115;52.002;4.686;2023-08-17T03:39:14;102038.25;;;16.34;100.00
59337;BME280;45115;52.002;4.686;2023-08-17T03:41:41;102042.44;;;16.38;100.00
59337;BME280;45115;52.002;4.686;2023-08-17T03:44:08;102028.31;;;16.41;100.00
59337;BME280;45115;52.002;4.686;2023-08-17T03:46:35;102029.31;;;16.40;100.00
59337;BME280;45115;52.002;4.686;2023-08-17T03:49:02;102039.66;;;16.47;100.00
59337;BME280;45115;52.002;4.686;2023-08-17T03:51:29;102032.09;;;16.49;100.00
59337;BME280;45115;52.002;4.686;2023-08-17T03:53:55;102031.66;;;16.44;100.00
59337;BME280;45115;52.002;4.686;2023-08-17T03:56:24;102032.66;;;16.43;100.00
59337;BME280;45115;52.002;4.686;2023-08-17T03:58:52;102028.88;;;16.44;100.00
59337;BME280;45115;52.002;4.686;2023-08-17T04:01:19;102025.09;;;16.45;99.94
59337;BME280;45115;52.002;4.686;2023-08-17T04:03:46;102034.53;;;16.52;100.00
59337;BME280;45115;52.002;4.686;2023-08-17T04:06:13;102029.44;;;16.48;100.00
59337;BME280;45115;52.002;4.686;2023-08-17T04:08:40;102024.97;;;16.47;99.74
59337;BME280;45115;52.002;4.686;2023-08-17T04:11:06;102032.66;;;16.43;100.00
59337;BME280;45115;52.002;4.686;2023-08-17T04:13:34;102040.22;;;16.51;100.00
59337;BME280;45115;52.002;4.686;2023-08-17T04:16:01;102036.59;;;16.50;99.92
59337;BME280;45115;52.002;4.686;2023-08-17T04:18:28;102036.75;;;16.49;100.00
59337;BME280;45115;52.002;4.686;2023-08-17T04:20:54;102031.03;;;16.50;100.00
59337;BME280;45115;52.002;4.686;2023-08-17T04:23:21;102029.31;;;16.49;99.79
59337;BME280;45115;52.002;4.686;2023-08-17T04:25:48;102038.19;;;16.53;99.79
59337;BME280;45115;52.002;4.686;2023-08-17T04:28:15;102037.31;;;16.52;99.61
59337;BME280;45115;52.002;4.686;2023-08-17T04:30:43;102038.19;;;16.53;99.79
59337;BME280;45115;52.002;4.686;2023-08-17T04:33:10;102047.97;;;16.47;99.97
59337;BME280;45115;52.002;4.686;2023-08-17T04:35:38;102043.72;;;16.53;99.72
59337;BME280;45115;52.002;4.686;2023-08-17T04:38:05;102041.50;;;16.56;99.80
59337;BME280;45115;52.002;4.686;2023-08-17T04:40:33;102037.03;;;16.46;100.00
59337;BME280;45115;52.002;4.686;2023-08-17T04:43:00;102044.72;;;16.52;100.00
59337;BME280;45115;52.002;4.686;2023-08-17T04:45:27;102047.31;;;16.53;100.00
59337;BME280;45115;52.002;4.686;2023-08-17T04:47:55;102043.72;;;16.53;99.90
59337;BME280;45115;52.002;4.686;2023-08-17T04:50:23;102048.63;;;16.59;99.60
59337;BME280;45115;52.002;4.686;2023-08-17T04:52:49;102051.06;;;16.62;99.39
59337;BME280;45115;52.002;4.686;2023-08-17T04:55:16;102046.72;;;16.59;99.50
59337;BME280;45115;52.002;4.686;2023-08-17T04:57:43;102045.25;;;16.65;99.49
59337;BME280;45115;52.002;4.686;2023-08-17T05:00:13;102037.69;;;16.57;99.11
59337;BME280;45115;52.002;4.686;2023-08-17T05:02:41;102033.91;;;16.58;98.65
59337;BME280;45115;52.002;4.686;2023-08-17T05:05:10;102031.56;;;16.63;98.65
59337;BME280;45115;52.002;4.686;2023-08-17T05:07:37;102021.91;;;16.67;98.57
59337;BME280;45115;52.002;4.686;2023-08-17T05:10:04;102013.88;;;16.74;97.82
59337;BME280;45115;52.002;4.686;2023-08-17T05:12:34;102018.16;;;16.86;96.82
59337;BME280;45115;52.002;4.686;2023-08-17T05:15:01;102014.19;;;16.89;96.27
59337;BME280;45115;52.002;4.686;2023-08-17T05:17:27;102023.38;;;16.89;96.45
59337;BME280;45115;52.002;4.686;2023-08-17T05:19:55;102019.66;;;16.98;95.71
59337;BME280;45115;52.002;4.686;2023-08-17T05:22:23;102015.22;;;17.05;95.46
59337;BME280;45115;52.002;4.686;2023-08-17T05:24:50;102019.16;;;17.03;95.34
59337;BME280;45115;52.002;4.686;2023-08-17T05:27:18;102018.28;;;17.02;95.28
59337;BME280;45115;52.002;4.686;2023-08-17T05:29:45;102027.31;;;17.04;95.38
59337;BME280;45115;52.002;4.686;2023-08-17T05:32:12;102030.00;;;17.14;95.19
59337;BME280;45115;52.002;4.686;2023-08-17T05:34:40;102039.59;;;17.19;94.95
59337;BME280;45115;52.002;4.686;2023-08-17T05:37:06;102031.75;;;17.15;95.66
59337;BME280;45115;52.002;4.686;2023-08-17T05:39:34;102034.91;;;17.20;95.15
59337;BME280;45115;52.002;4.686;2023-08-17T05:42:01;102033.66;;;17.14;95.65
59337;BME280;45115;52.002;4.686;2023-08-17T05:44:28;102040.88;;;17.25;95.68
59337;BME280;45115;52.002;4.686;2023-08-17T05:46:55;102033.09;;;17.28;94.87
59337;BME280;45115;52.002;4.686;2023-08-17T05:49:21;102032.63;;;17.33;94.37
59337;BME280;45115;52.002;4.686;2023-08-17T05:51:48;102040.84;;;17.42;94.17
59337;BME280;45115;52.002;4.686;2023-08-17T05:54:15;102031.03;;;17.48;93.85
59337;BME280;45115;52.002;4.686;2023-08-17T05:56:43;102026.91;;;17.52;93.82
59337;BME280;45115;52.002;4.686;2023-08-17T05:59:12;102036.31;;;17.59;93.83
59337;BME280;45115;52.002;4.686;2023-08-17T06:01:39;102040.22;;;17.48;93.61
59337;BME280;45115;52.002;4.686;2023-08-17T06:04:06;102045.81;;;17.56;93.54
59337;BME280;45115;52.002;4.686;2023-08-17T06:06:33;102045.22;;;17.70;93.13
59337;BME280;45115;52.002;4.686;2023-08-17T06:09:00;102049.44;;;17.74;92.55
59337;BME280;45115;52.002;4.686;2023-08-17T06:11:27;102046.16;;;17.53;92.79
59337;BME280;45115;52.002;4.686;2023-08-17T06:13:55;102040.22;;;17.48;93.83
59337;BME280;45115;52.002;4.686;2023-08-17T06:16:22;102050.97;;;17.51;93.52
59337;BME280;45115;52.002;4.686;2023-08-17T06:18:48;102046.94;;;17.46;93.90
59337;BME280;45115;52.002;4.686;2023-08-17T06:21:15;102052.72;;;17.52;93.68
59337;BME280;45115;52.002;4.686;2023-08-17T06:23:42;102049.09;;;17.52;93.65
59337;BME280;45115;52.002;4.686;2023-08-17T06:26:08;102056.31;;;17.70;93.47
59337;BME280;45115;52.002;4.686;2023-08-17T06:28:35;102055.63;;;17.68;92.46
59337;BME280;45115;52.002;4.686;2023-08-17T06:31:03;102061.09;;;17.60;92.50
59337;BME280;45115;52.002;4.686;2023-08-17T06:33:30;102061.56;;;17.73;92.51
59337;BME280;45115;52.002;4.686;2023-08-17T06:35:56;102051.78;;;17.87;91.91
59337;BME280;45115;52.002;4.686;2023-08-17T06:38:23;102054.56;;;17.87;92.11
59337;BME280;45115;52.002;4.686;2023-08-17T06:40:51;102050.84;;;18.04;91.46
59337;BME280;45115;52.002;4.686;2023-08-17T06:43:17;102053.78;;;18.03;90.98
59337;BME280;45115;52.002;4.686;2023-08-17T06:45:44;102040.00;;;18.19;90.63
59337;BME280;45115;52.002;4.686;2023-08-17T06:48:13;102041.78;;;18.61;88.76
59337;BME280;45115;52.002;4.686;2023-08-17T06:50:39;102043.91;;;18.67;87.71
59337;BME280;45115;52.002;4.686;2023-08-17T06:53:07;102040.31;;;18.83;87.01
59337;BME280;45115;52.002;4.686;2023-08-17T06:55:33;102048.50;;;19.09;84.54
59337;BME280;45115;52.002;4.686;2023-08-17T06:58:01;102046.66;;;19.33;83.64
59337;BME280;45115;52.002;4.686;2023-08-17T07:00:28;102048.09;;;19.69;81.78
59337;BME280;45115;52.002;4.686;2023-08-17T07:02:54;102048.59;;;19.65;81.62
59337;BME280;45115;52.002;4.686;2023-08-17T07:05:23;102048.56;;;19.97;81.00
59337;BME280;45115;52.002;4.686;2023-08-17T07:07:50;102054.31;;;19.95;79.68
59337;BME280;45115;52.002;4.686;2023-08-17T07:10:18;102060.19;;;20.00;79.08
59337;BME280;45115;52.002;4.686;2023-08-17T07:12:45;102063.69;;;20.02;79.16
59337;BME280;45115;52.002;4.686;2023-08-17T07:15:12;102056.66;;;20.77;76.18
59337;BME280;45115;52.002;4.686;2023-08-17T07:17:39;102060.56;;;20.91;76.12
59337;BME280;45115;52.002;4.686;2023-08-17T07:20:06;102057.06;;;20.97;75.88
59337;BME280;45115;52.002;4.686;2023-08-17T07:22:36;102060.00;;;20.65;76.76
59337;BME280;45115;52.002;4.686;2023-08-17T07:25:03;102059.56;;;20.84;76.31
59337;BME280;45115;52.002;4.686;2023-08-17T07:27:30;102064.22;;;20.99;75.67
59337;BME280;45115;52.002;4.686;2023-08-17T07:29:57;102063.94;;;20.86;76.37
59337;BME280;45115;52.002;4.686;2023-08-17T07:32:24;102066.16;;;20.91;75.18
59337;BME280;45115;52.002;4.686;2023-08-17T07:34:51;102057.03;;;20.66;76.36
59337;BME280;45115;52.002;4.686;2023-08-17T07:37:19;102059.75;;;20.44;76.87
59337;BME280;45115;52.002;4.686;2023-08-17T07:39:47;102047.84;;;20.11;78.45
59337;BME280;45115;52.002;4.686;2023-08-17T07:42:14;102053.97;;;19.58;80.71
59337;BME280;45115;52.002;4.686;2023-08-17T07:44:41;102057.97;;;19.72;80.90
59337;BME280;45115;52.002;4.686;2023-08-17T07:47:07;102058.13;;;19.86;81.11
59337;BME280;45115;52.002;4.686;2023-08-17T07:49:34;102067.47;;;20.01;79.50
59337;BME280;45115;52.002;4.686;2023-08-17T07:52:01;102055.84;;;19.98;79.86
59337;BME280;45115;52.002;4.686;2023-08-17T07:54:27;102047.94;;;20.42;79.82
59337;BME280;45115;52.002;4.686;2023-08-17T07:56:55;102050.69;;;20.50;78.17
59337;BME280;45115;52.002;4.686;2023-08-17T07:59:22;102061.41;;;20.69;77.60
59337;BME280;45115;52.002;4.686;2023-08-17T08:01:49;102051.16;;;21.00;75.05
59337;BME280;45115;52.002;4.686;2023-08-17T08:04:15;102047.41;;;21.98;71.75
59337;BME280;45115;52.002;4.686;2023-08-17T08:06:42;102054.00;;;22.34;69.23
59337;BME280;45115;52.002;4.686;2023-08-17T08:09:09;102045.69;;;23.20;66.72
59337;BME280;45115;52.002;4.686;2023-08-17T08:11:35;102056.91;;;22.70;67.43
59337;BME280;45115;52.002;4.686;2023-08-17T08:14:03;102058.22;;;22.45;68.11
59337;BME280;45115;52.002;4.686;2023-08-17T08:16:30;102066.16;;;22.56;68.66
59337;BME280;45115;52.002;4.686;2023-08-17T08:18:57;102059.22;;;22.81;67.97
59337;BME280;45115;52.002;4.686;2023-08-17T08:21:24;102052.38;;;22.69;67.15
59337;BME280;45115;52.002;4.686;2023-08-17T08:23:52;102047.09;;;22.59;67.92
59337;BME280;45115;52.002;4.686;2023-08-17T08:26:19;102040.16;;;22.55;68.64
59337;BME280;45115;52.002;4.686;2023-08-17T08:28:45;102040.91;;;22.64;67.97
59337;BME280;45115;52.002;4.686;2023-08-17T08:31:13;102034.75;;;22.68;68.89
59337;BME280;45115;52.002;4.686;2023-08-17T08:33:40;102033.09;;;22.45;69.57
59337;BME280;45115;52.002;4.686;2023-08-17T08:36:07;102035.31;;;22.35;69.18
59337;BME280;45115;52.002;4.686;2023-08-17T08:38:33;102029.63;;;21.99;71.46
59337;BME280;45115;52.002;4.686;2023-08-17T08:41:01;102028.47;;;21.93;72.56
59337;BME280;45115;52.002;4.686;2023-08-17T08:43:28;102035.72;;;22.32;70.96
59337;BME280;45115;52.002;4.686;2023-08-17T08:45:56;102027.03;;;22.12;71.20
59337;BME280;45115;52.002;4.686;2023-08-17T08:48:26;102022.72;;;22.39;70.13
59337;BME280;45115;52.002;4.686;2023-08-17T08:50:54;102019.44;;;22.64;69.35
59337;BME280;45115;52.002;4.686;2023-08-17T08:53:30;102023.78;;;23.02;68.40
59337;BME280;45115;52.002;4.686;2023-08-17T08:55:59;102026.72;;;22.80;68.00
59337;BME280;45115;52.002;4.686;2023-08-17T08:58:26;102029.44;;;22.44;68.88
59337;BME280;45115;52.002;4.686;2023-08-17T09:00:52;102029.53;;;22.51;68.60
59337;BME280;45115;52.002;4.686;2023-08-17T09:03:20;102032.13;;;22.08;69.31
59337;BME280;45115;52.002;4.686;2023-08-17T09:05:49;102025.97;;;21.98;70.12
59337;BME280;45115;52.002;4.686;2023-08-17T09:08:20;102023.88;;;22.44;69.56
59337;BME280;45115;52.002;4.686;2023-08-17T09:10:47;102019.03;;;22.38;69.07
59337;BME280;45115;52.002;4.686;2023-08-17T09:13:14;102016.56;;;22.58;68.58
59337;BME280;45115;52.002;4.686;2023-08-17T09:15:41;102013.75;;;22.72;68.64
59337;BME280;45115;52.002;4.686;2023-08-17T09:18:08;102009.44;;;22.41;69.66
59337;BME280;45115;52.002;4.686;2023-08-17T09:20:39;102017.81;;;22.26;70.37
59337;BME280;45115;52.002;4.686;2023-08-17T09:23:11;102011.81;;;22.44;69.39
59337;BME280;45115;52.002;4.686;2023-08-17T09:25:40;102012.69;;;22.30;69.74
59337;BME280;45115;52.002;4.686;2023-08-17T09:28:07;102009.50;;;22.33;69.70
59337;BME280;45115;52.002;4.686;2023-08-17T09:30:49;102014.22;;;22.03;70.56
59337;BME280;45115;52.002;4.686;2023-08-17T09:33:15;102009.69;;;22.16;70.51
59337;BME280;45115;52.002;4.686;2023-08-17T09:35:42;102009.72;;;22.46;69.98
59337;BME280;45115;52.002;4.686;2023-08-17T09:38:09;102001.31;;;22.75;68.38
59337;BME280;45115;52.002;4.686;2023-08-17T09:40:37;102009.06;;;23.15;68.20
59337;BME280;45115;52.002;4.686;2023-08-17T09:43:04;102010.03;;;23.43;65.98
59337;BME280;45115;52.002;4.686;2023-08-17T09:45:31;102007.75;;;23.74;65.48
59337;BME280;45115;52.002;4.686;2023-08-17T09:47:58;101993.31;;;23.29;66.68
59337;BME280;45115;52.002;4.686;2023-08-17T09:50:25;101987.22;;;22.83;67.38
59337;BME280;45115;52.002;4.686;2023-08-17T09:52:52;101989.56;;;22.79;69.35
59337;BME280;45115;52.002;4.686;2023-08-17T09:55:20;101996.69;;;23.03;67.43
59337;BME280;45115;52.002;4.686;2023-08-17T09:57:49;101983.03;;;22.43;67.50
59337;BME280;45115;52.002;4.686;2023-08-17T10:00:16;101985.13;;;22.41;70.10
59337;BME280;45115;52.002;4.686;2023-08-17T10:02:44;101989.72;;;22.57;68.97
59337;BME280;45115;52.002;4.686;2023-08-17T10:05:12;101988.69;;;22.79;68.62
59337;BME280;45115;52.002;4.686;2023-08-17T10:07:43;101973.78;;;22.57;68.40
59337;BME280;45115;52.002;4.686;2023-08-17T10:10:13;101975.50;;;22.94;67.96
59337;BME280;45115;52.002;4.686;2023-08-17T10:12:45;101976.13;;;22.89;68.13
59337;BME280;45115;52.002;4.686;2023-08-17T10:15:18;101983.66;;;22.74;69.43
59337;BME280;45115;52.002;4.686;2023-08-17T10:17:51;101988.91;;;22.98;69.49
59337;BME280;45115;52.002;4.686;2023-08-17T10:20:19;101977.00;;;23.11;68.32
59337;BME280;45115;52.002;4.686;2023-08-17T10:22:51;101981.41;;;23.41;66.97
59337;BME280;45115;52.002;4.686;2023-08-17T10:25:26;101969.63;;;23.03;66.97
59337;BME280;45115;52.002;4.686;2023-08-17T10:27:54;101965.03;;;23.17;67.47
59337;BME280;45115;52.002;4.686;2023-08-17T10:30:22;101953.16;;;23.57;67.56
59337;BME280;45115;52.002;4.686;2023-08-17T10:32:49;101953.91;;;23.45;67.30
59337;BME280;45115;52.002;4.686;2023-08-17T10:35:16;101965.88;;;23.60;65.53
59337;BME280;45115;52.002;4.686;2023-08-17T10:37:43;101960.81;;;23.06;67.46
59337;BME280;45115;52.002;4.686;2023-08-17T10:40:11;101976.47;;;23.43;68.00
59337;BME280;45115;52.002;4.686;2023-08-17T10:42:38;101962.88;;;23.61;66.58
59337;BME280;45115;52.002;4.686;2023-08-17T10:45:27;101973.59;;;23.85;65.80
59337;BME280;45115;52.002;4.686;2023-08-17T10:48:26;101968.88;;;25.14;61.45
59337;BME280;45115;52.002;4.686;2023-08-17T10:51:05;101976.19;;;25.02;61.63
59337;BME280;45115;52.002;4.686;2023-08-17T10:53:36;101972.28;;;24.43;63.22
59337;BME280;45115;52.002;4.686;2023-08-17T10:56:07;101969.78;;;24.68;62.06
59337;BME280;45115;52.002;4.686;2023-08-17T10:58:34;101967.47;;;24.30;64.23
59337;BME280;45115;52.002;4.686;2023-08-17T11:01:03;101961.34;;;24.14;64.00
59337;BME280;45115;52.002;4.686;2023-08-17T11:03:30;101971.47;;;24.15;63.38
59337;BME280;45115;52.002;4.686;2023-08-17T11:05:57;101969.81;;;24.27;63.08
59337;BME280;45115;52.002;4.686;2023-08-17T11:08:28;101967.34;;;24.11;63.95
59337;BME280;45115;52.002;4.686;2023-08-17T11:11:01;101960.50;;;24.20;63.44
59337;BME280;45115;52.002;4.686;2023-08-17T11:13:29;101959.34;;;24.01;63.75
59337;BME280;45115;52.002;4.686;2023-08-17T11:15:57;101958.69;;;24.06;62.82
59337;BME280;45115;52.002;4.686;2023-08-17T11:18:25;101953.66;;;24.29;63.86
59337;BME280;45115;52.002;4.686;2023-08-17T11:20:53;101945.28;;;24.36;62.99
59337;BME280;45115;52.002;4.686;2023-08-17T11:23:20;101950.28;;;24.40;62.05
59337;BME280;45115;52.002;4.686;2023-08-17T11:25:48;101939.75;;;24.49;62.44
59337;BME280;45115;52.002;4.686;2023-08-17T11:28:16;101952.22;;;24.46;62.99
59337;BME280;45115;52.002;4.686;2023-08-17T11:30:43;101943.25;;;24.57;61.56
59337;BME280;45115;52.002;4.686;2023-08-17T11:33:10;101948.09;;;24.36;62.70
59337;BME280;45115;52.002;4.686;2023-08-17T11:35:38;101954.34;;;24.38;62.62
59337;BME280;45115;52.002;4.686;2023-08-17T11:38:05;101948.47;;;24.67;60.78
59337;BME280;45115;52.002;4.686;2023-08-17T11:40:32;101960.66;;;25.00;59.80
59337;BME280;45115;52.002;4.686;2023-08-17T11:42:59;101965.53;;;24.72;60.37
59337;BME280;45115;52.002;4.686;2023-08-17T11:45:26;101964.22;;;24.33;62.21
59337;BME280;45115;52.002;4.686;2023-08-17T11:47:52;101948.50;;;24.73;61.83
59337;BME280;45115;52.002;4.686;2023-08-17T11:50:19;101955.44;;;24.84;60.81
59337;BME280;45115;52.002;4.686;2023-08-17T11:52:47;101945.56;;;24.47;61.22
59337;BME280;45115;52.002;4.686;2023-08-17T11:55:16;101949.94;;;24.63;62.07
59337;BME280;45115;52.002;4.686;2023-08-17T11:57:44;101950.53;;;24.45;62.79
59337;BME280;45115;52.002;4.686;2023-08-17T12:00:17;101944.56;;;24.14;63.17
59337;BME280;45115;52.002;4.686;2023-08-17T12:02:47;101949.47;;;24.53;62.59
59337;BME280;45115;52.002;4.686;2023-08-17T12:05:14;101941.81;;;24.33;62.92
59337;BME280;45115;52.002;4.686;2023-08-17T12:07:46;101941.47;;;24.43;63.02
59337;BME280;45115;52.002;4.686;2023-08-17T12:10:13;101936.53;;;24.11;64.23
59337;BME280;45115;52.002;4.686;2023-08-17T12:12:39;101949.19;;;24.35;64.37
59337;BME280;45115;52.002;4.686;2023-08-17T12:15:07;101939.44;;;24.30;63.74
59337;BME280;45115;52.002;4.686;2023-08-17T12:17:35;101952.56;;;24.23;64.68
59337;BME280;45115;52.002;4.686;2023-08-17T12:20:08;101943.50;;;24.21;64.29
59337;BME280;45115;52.002;4.686;2023-08-17T12:22:35;101953.56;;;24.09;65.18
59337;BME280;45115;52.002;4.686;2023-08-17T12:25:04;101936.31;;;23.78;66.31
59337;BME280;45115;52.002;4.686;2023-08-17T12:27:31;101943.72;;;23.92;65.58
59337;BME280;45115;52.002;4.686;2023-08-17T12:29:58;101937.38;;;24.05;65.08
59337;BME280;45115;52.002;4.686;2023-08-17T12:32:25;101937.19;;;23.79;65.57
59337;BME280;45115;52.002;4.686;2023-08-17T12:34:51;101939.84;;;23.93;66.10
59337;BME280;45115;52.002;4.686;2023-08-17T12:37:19;101941.41;;;23.68;66.60
59337;BME280;45115;52.002;4.686;2023-08-17T12:39:46;101948.06;;;23.95;66.47
59337;BME280;45115;52.002;4.686;2023-08-17T12:42:14;101942.00;;;24.19;66.18
59337;BME280;45115;52.002;4.686;2023-08-17T12:44:42;101941.16;;;23.97;65.73
59337;BME280;45115;52.002;4.686;2023-08-17T12:47:09;101943.34;;;23.68;67.47
59337;BME280;45115;52.002;4.686;2023-08-17T12:49:36;101941.81;;;23.93;66.93
59337;BME280;45115;52.002;4.686;2023-08-17T12:52:03;101940.22;;;24.11;65.65
59337;BME280;45115;52.002;4.686;2023-08-17T12:54:30;101944.66;;;23.99;65.78